Time;durP1;ratioP1;P1;durP2;ratioP2;P2;SDS_P1;SDS_P2;PMS_P1;PMS_P2;Temp;Humidity;BMP_temperature;BMP_pressure;BME280_temperature;BME280_humidity;BME280_pressure;Samples;Min_cycle;Max_cycle;Signal;HPM_P1;HPM_P2
2021/01/26 00:01:23;;;;;;;13.68;12.50;;;16.20;99.90;;;;;;5143728;27;20058;-83
2021/01/26 00:03:52;;;;;;;15.48;14.07;;;16.10;99.90;;;;;;5143189;27;20070;-83
2021/01/26 00:06:20;;;;;;;14.73;13.30;;;16.10;99.90;;;;;;5142763;27;20038;-83
2021/01/26 00:08:48;;;;;;;14.38;13.15;;;16.20;99.90;;;;;;5126563;27;20050;-84
2021/01/26 00:11:16;;;;;;;13.52;12.48;;;16.20;99.90;;;;;;5143283;27;20770;-83
2021/01/26 00:13:45;;;;;;;14.00;12.60;;;16.20;99.90;;;;;;5140085;27;20047;-83
2021/01/26 00:16:13;;;;;;;13.77;12.37;;;16.20;99.90;;;;;;5147382;27;20077;-83
2021/01/26 00:18:44;;;;;;;14.68;12.80;;;16.20;99.90;;;;;;5166491;27;20044;-83
2021/01/26 00:21:11;;;;;;;14.25;12.93;;;16.20;99.90;;;;;;5145830;27;20312;-83
2021/01/26 00:23:39;;;;;;;13.10;12.10;;;16.20;99.90;;;;;;5165543;27;20031;-83
2021/01/26 00:26:08;;;;;;;13.82;12.55;;;16.20;99.90;;;;;;5164786;27;20106;-83
2021/01/26 00:28:36;;;;;;;13.45;12.52;;;16.20;99.90;;;;;;5162821;27;20344;-83
2021/01/26 00:31:04;;;;;;;13.70;12.40;;;16.30;99.90;;;;;;5160387;27;20431;-84
2021/01/26 00:33:33;;;;;;;15.18;12.25;;;16.30;99.90;;;;;;5160967;27;20047;-84
2021/01/26 00:36:03;;;;;;;13.38;12.00;;;16.30;99.90;;;;;;5155330;27;20065;-83
2021/01/26 00:38:31;;;;;;;14.73;12.60;;;16.30;99.90;;;;;;5166022;27;20035;-83
2021/01/26 00:40:59;;;;;;;14.50;12.70;;;16.30;99.90;;;;;;5151033;27;20051;-84
2021/01/26 00:43:27;;;;;;;14.85;13.52;;;16.40;99.90;;;;;;5150181;27;20114;-83
2021/01/26 00:45:55;;;;;;;14.57;13.10;;;16.30;99.90;;;;;;5164951;27;20036;-83
2021/01/26 00:48:23;;;;;;;13.55;12.25;;;16.30;99.90;;;;;;5166010;27;20484;-83
2021/01/26 00:50:51;;;;;;;16.45;11.35;;;16.30;99.90;;;;;;5160182;27;20074;-83
2021/01/26 00:53:20;;;;;;;13.32;11.43;;;16.30;99.90;;;;;;5159435;27;20225;-83
2021/01/26 00:55:49;;;;;;;12.90;11.50;;;16.20;99.90;;;;;;5162817;27;20066;-84
2021/01/26 00:58:17;;;;;;;13.70;12.30;;;16.20;99.90;;;;;;5164858;27;20106;-83
2021/01/26 01:00:46;;;;;;;16.42;11.77;;;16.20;99.90;;;;;;5164924;27;20031;-84
2021/01/26 01:03:16;;;;;;;12.37;11.12;;;16.10;99.90;;;;;;5163223;27;20055;-83
2021/01/26 01:05:44;;;;;;;14.70;12.23;;;16.10;99.90;;;;;;5162165;27;20055;-83
2021/01/26 01:08:11;;;;;;;15.93;12.63;;;16.10;99.90;;;;;;5168207;27;20034;-83
2021/01/26 01:10:40;;;;;;;14.68;13.18;;;16.00;99.90;;;;;;5165028;27;20027;-84
2021/01/26 01:13:12;;;;;;;14.93;12.23;;;16.00;99.90;;;;;;5157846;27;20134;-83
2021/01/26 01:15:40;;;;;;;15.00;11.25;;;16.10;99.90;;;;;;5162369;27;20034;-83
2021/01/26 01:18:09;;;;;;;13.48;11.60;;;16.10;99.90;;;;;;5163428;27;20043;-83
2021/01/26 01:20:38;;;;;;;11.88;10.82;;;16.10;99.90;;;;;;5160293;27;20296;-83
2021/01/26 01:23:07;;;;;;;11.57;10.32;;;16.10;99.90;;;;;;5155931;27;20078;-82
2021/01/26 01:25:36;;;;;;;14.65;13.40;;;16.20;99.90;;;;;;5158100;27;20094;-84
2021/01/26 01:28:04;;;;;;;16.50;15.07;;;16.20;99.90;;;;;;5163396;27;20062;-84
2021/01/26 01:30:34;;;;;;;15.20;14.10;;;16.20;99.90;;;;;;5156089;27;20069;-83
2021/01/26 01:33:04;;;;;;;15.45;14.30;;;16.20;99.90;;;;;;5158513;27;20112;-83
2021/01/26 01:35:32;;;;;;;5.93;1.25;;;16.20;99.90;;;;;;5165748;27;20333;-83
2021/01/26 01:38:00;;;;;;;5.95;1.35;;;16.20;99.90;;;;;;5163125;27;20023;-84
2021/01/26 01:40:32;;;;;;;7.40;1.50;;;16.20;99.90;;;;;;5159471;27;20027;-83
2021/01/26 01:43:01;;;;;;;6.72;1.58;;;16.30;99.90;;;;;;5159689;27;20027;-83
2021/01/26 01:45:30;;;;;;;7.65;1.60;;;16.30;99.90;;;;;;5161851;27;20023;-83
2021/01/26 01:48:06;;;;;;;8.43;1.52;;;16.30;99.90;;;;;;5162154;27;20094;-83
2021/01/26 01:50:53;;;;;;;15.23;14.13;;;16.30;99.90;;;;;;5161733;27;20057;-83
2021/01/26 01:53:39;;;;;;;16.52;15.15;;;16.30;99.90;;;;;;5160946;27;20051;-83
2021/01/26 01:56:36;;;;;;;15.77;14.38;;;16.30;99.90;;;;;;5162387;27;20994;-84
2021/01/26 01:59:23;;;;;;;14.18;13.20;;;16.30;99.90;;;;;;5160444;27;20027;-83
2021/01/26 02:01:52;;;;;;;14.87;13.48;;;16.40;99.90;;;;;;5162194;27;20065;-83
2021/01/26 02:04:23;;;;;;;15.02;13.52;;;16.40;99.90;;;;;;5164287;27;20045;-83
2021/01/26 02:06:55;;;;;;;14.02;12.65;;;16.40;99.90;;;;;;5168680;27;20062;-83
2021/01/26 02:09:36;;;;;;;17.92;16.37;;;16.40;99.90;;;;;;5162945;27;20082;-83
2021/01/26 02:12:05;;;;;;;16.87;15.48;;;16.50;99.90;;;;;;5145688;27;20023;-83
2021/01/26 02:14:37;;;;;;;15.85;14.50;;;16.50;99.90;;;;;;5160100;27;20062;-82
2021/01/26 02:17:36;;;;;;;14.68;13.20;;;16.50;99.90;;;;;;5162192;27;20031;-83
2021/01/26 02:20:39;;;;;;;17.12;15.40;;;16.50;99.90;;;;;;5165740;27;20038;-82
2021/01/26 02:23:33;;;;;;;16.67;15.00;;;16.50;99.90;;;;;;5163502;27;20059;-83
2021/01/26 02:26:40;;;;;;;17.20;15.48;;;16.50;99.90;;;;;;5163648;27;20028;-83
2021/01/26 02:29:17;;;;;;;18.17;16.05;;;16.40;99.90;;;;;;5168535;27;20406;-83
2021/01/26 02:32:15;;;;;;;16.40;14.77;;;16.40;99.90;;;;;;5163503;27;20034;-83
2021/01/26 02:35:05;;;;;;;17.30;15.65;;;16.30;99.90;;;;;;5160585;27;20050;-83
2021/01/26 02:37:56;;;;;;;15.30;13.95;;;16.40;99.90;;;;;;5159157;27;20416;-84
2021/01/26 02:41:06;;;;;;;14.30;13.20;;;16.30;99.90;;;;;;5166596;27;20034;-83
2021/01/26 02:44:03;;;;;;;14.85;13.55;;;16.30;99.90;;;;;;5140029;27;20052;-83
2021/01/26 02:46:45;;;;;;;16.48;14.85;;;16.30;99.90;;;;;;5162747;27;20082;-84
2021/01/26 02:49:26;;;;;;;15.35;13.93;;;16.30;99.90;;;;;;5161981;27;20407;-84
2021/01/26 02:52:23;;;;;;;15.02;13.70;;;16.30;99.90;;;;;;5162059;27;20023;-83
2021/01/26 02:55:15;;;;;;;14.87;13.68;;;16.30;99.90;;;;;;5164757;27;20027;-83
2021/01/26 02:57:52;;;;;;;14.50;13.38;;;16.30;99.90;;;;;;5162531;27;20038;-83
2021/01/26 03:00:28;;;;;;;15.50;13.70;;;16.30;99.90;;;;;;5165593;27;20038;-83
2021/01/26 03:03:06;;;;;;;14.00;12.95;;;16.30;99.90;;;;;;5162659;27;20027;-83
2021/01/26 03:05:40;;;;;;;14.10;13.00;;;16.40;99.90;;;;;;5167470;27;20035;-83
2021/01/26 03:08:18;;;;;;;13.95;12.75;;;16.30;99.90;;;;;;5166200;27;20023;-83
2021/01/26 07:31:55;;;;;;;16.23;14.95;;;16.40;99.90;;;;;;5126373;27;20020;-83
2021/01/26 07:34:32;;;;;;;14.93;13.50;;;16.40;99.90;;;;;;5148863;27;20069;-83
2021/01/26 07:37:08;;;;;;;12.80;11.90;;;16.40;99.90;;;;;;5171420;27;20081;-83
2021/01/26 07:39:53;;;;;;;10.07;8.05;;;16.40;99.90;;;;;;5168321;27;20076;-83
2021/01/26 07:42:30;;;;;;;12.07;7.82;;;16.50;99.90;;;;;;5165995;27;20019;-83
2021/01/26 07:44:58;;;;;;;11.40;7.72;;;16.50;99.90;;;;;;5166255;27;20335;-82
2021/01/26 07:47:43;;;;;;;11.95;8.45;;;16.50;99.90;;;;;;5162177;27;20492;-82
2021/01/26 07:50:36;;;;;;;8.15;7.37;;;16.40;99.90;;;;;;5163544;27;20773;-83
2021/01/26 07:53:24;;;;;;;10.88;7.50;;;16.40;99.90;;;;;;5167481;27;20520;-82
2021/01/26 07:56:17;;;;;;;12.23;8.40;;;16.50;99.90;;;;;;5150773;27;20035;-83
2021/01/26 07:58:46;;;;;;;8.68;7.80;;;16.50;99.90;;;;;;5166279;27;20038;-83
2021/01/26 08:01:19;;;;;;;9.95;8.32;;;16.50;99.90;;;;;;5148285;27;20065;-83
2021/01/26 08:03:49;;;;;;;9.25;7.68;;;16.50;99.90;;;;;;5163028;27;20524;-83
2021/01/26 08:06:42;;;;;;;8.50;7.70;;;16.50;99.90;;;;;;5168328;27;20069;-83
2021/01/26 08:09:16;;;;;;;10.50;7.20;;;16.60;99.90;;;;;;5162338;27;20513;-83
2021/01/26 08:12:19;;;;;;;10.95;8.10;;;16.60;99.90;;;;;;5165651;27;20033;-83
2021/01/26 08:14:54;;;;;;;9.90;7.95;;;16.60;99.90;;;;;;5167457;27;20041;-83
2021/01/26 08:17:28;;;;;;;;;;;16.70;99.90;;;;;;5168635;27;20065;-84
2021/01/26 08:20:23;;;;;;;9.05;8.15;;;16.70;99.90;;;;;;5163983;27;19970;-83
2021/01/26 08:23:20;;;;;;;12.80;8.70;;;16.60;99.90;;;;;;5167268;27;20055;-83
2021/01/26 08:25:53;;;;;;;9.70;8.80;;;16.70;99.90;;;;;;5165515;27;20525;-83
2021/01/26 08:28:39;;;;;;;15.30;13.90;;;16.90;99.90;;;;;;5165698;27;20038;-83
2021/01/26 08:31:38;;;;;;;6.93;1.30;;;17.00;99.90;;;;;;5168008;27;20433;-83
2021/01/26 08:34:22;;;;;;;7.62;1.60;;;17.10;99.90;;;;;;5144547;27;20055;-83
2021/01/26 08:37:08;;;;;;;5.75;1.52;;;17.10;99.90;;;;;;5148851;27;20028;-83
2021/01/26 08:39:39;;;;;;;18.70;16.98;;;17.30;99.90;;;;;;5146824;27;20062;-83
2021/01/26 08:42:10;;;;;;;8.05;3.03;;;19.00;99.90;;;;;;5149434;27;20023;-84
2021/01/26 08:44:38;;;;;;;5.82;1.90;;;20.90;95.40;;;;;;5147493;27;20488;-84
2021/01/26 08:47:51;;;;;;;6.28;1.60;;;21.70;99.90;;;;;;5147791;27;20038;-84
2021/01/26 08:50:22;;;;;;;4.25;1.58;;;21.10;99.90;;;;;;5064526;28;20029;-84
2021/01/26 08:52:53;;;;;;;10.98;1.67;;;;;;;;;;5139867;27;20516;-84
2021/01/26 08:55:41;;;;;;;7.07;1.70;;;;;;;;;;5146432;27;20012;-84
2021/01/26 08:58:11;;;;;;;7.20;1.65;;;;;;;;;;5144566;27;20050;-82
2021/01/26 09:00:46;;;;;;;9.35;2.12;;;;;;;;;;5145509;27;20055;-84
2021/01/26 09:03:29;;;;;;;6.75;1.37;;;;;;;;;;5144551;27;20023;-83
2021/01/26 09:05:59;;;;;;;7.07;2.78;;;;;;;;;;5127564;27;20087;-83
2021/01/26 09:08:43;;;;;;;5.20;1.65;;;;;;;;;;5147391;27;20040;-84
2021/01/26 09:11:47;;;;;;;6.57;1.60;;;22.60;97.10;;;;;;5145862;27;20033;-84
2021/01/26 09:14:22;;;;;;;8.13;2.05;;;;;;;;;;5145296;27;20038;-84
2021/01/26 09:16:50;;;;;;;;;;;;;;;;;;5142683;27;20063;-84
2021/01/26 09:19:18;;;;;;;7.65;1.92;;;;;;;;;;5148305;27;20408;-84
2021/01/26 09:21:47;;;;;;;10.88;2.00;;;;;;;;;;5146596;27;20465;-84
2021/01/26 09:24:20;;;;;;;8.38;1.50;;;;;;;;;;5148403;27;20043;-84
2021/01/26 09:26:49;;;;;;;3.40;1.10;;;21.10;99.90;;;;;;5145922;27;20023;-84
2021/01/26 09:29:26;;;;;;;4.37;1.87;;;21.50;99.90;;;;;;5148664;27;20584;-84
2021/01/26 09:31:56;;;;;;;6.35;1.58;;;;;;;;;;5149261;27;20069;-84
2021/01/26 09:34:27;;;;;;;6.50;1.92;;;;;;;;;;5165238;27;20054;-84
2021/01/26 09:37:12;;;;;;;7.00;1.75;;;;;;;;;;5168274;27;20042;-84
2021/01/26 09:39:40;;;;;;;6.95;1.60;;;;;;;;;;5148174;27;20034;-84
2021/01/26 09:42:16;;;;;;;6.75;1.67;;;;;;;;;;5166890;27;20058;-84
2021/01/26 09:44:58;;;;;;;5.82;1.73;;;;;;;;;;5147233;27;20027;-84
2021/01/26 09:47:29;;;;;;;9.32;1.75;;;;;;;;;;5148995;27;20371;-83
2021/01/26 09:50:05;;;;;;;8.85;2.37;;;;;;;;;;5165718;27;20089;-84
2021/01/26 09:52:34;;;;;;;5.25;2.30;;;;;;;;;;5166919;27;20023;-84
2021/01/26 09:55:15;;;;;;;5.22;1.62;;;;;;;;;;5169206;27;20046;-84
2021/01/26 09:57:43;;;;;;;3.58;1.58;;;;;;;;;;5167440;27;20390;-84
2021/01/26 10:00:16;;;;;;;4.55;1.33;;;;;;;;;;5167653;27;20446;-84
2021/01/26 10:02:45;;;;;;;7.40;1.80;;;;;;;;;;5161630;27;20057;-84
2021/01/26 10:05:15;;;;;;;7.12;1.60;;;;;;;;;;5163624;27;20526;-83
2021/01/26 10:07:43;;;;;;;6.28;3.03;;;;;;;;;;5166251;27;20035;-84
2021/01/26 10:10:30;;;;;;;9.23;2.65;;;;;;;;;;5167461;27;20047;-84
2021/01/26 10:13:19;;;;;;;9.32;1.73;;;;;;;;;;5163944;27;20039;-85
2021/01/26 10:15:47;;;;;;;4.30;2.08;;;;;;;;;;5166494;27;20059;-84
2021/01/26 10:18:17;;;;;;;6.32;1.37;;;;;;;;;;5168036;27;20027;-85
2021/01/26 10:20:47;;;;;;;6.18;1.50;;;;;;;;;;5166902;27;20055;-84
2021/01/26 10:23:29;;;;;;;6.87;1.95;;;;;;;;;;5168524;27;20041;-84
2021/01/26 10:26:23;;;;;;;5.50;1.65;;;;;;;;;;5167743;27;20023;-83
2021/01/26 10:29:13;;;;;;;9.15;3.10;;;;;;;;;;5165644;27;20457;-84
2021/01/26 10:31:41;;;;;;;5.18;2.40;;;;;;;;;;5166625;27;20038;-84
2021/01/26 10:34:17;;;;;;;5.45;1.40;;;;;;;;;;5167719;27;20410;-84
2021/01/26 10:36:46;;;;;;;7.15;2.60;;;;;;;;;;5165543;27;20382;-84
2021/01/26 10:39:28;;;;;;;6.57;2.50;;;;;;;;;;5164457;27;20061;-84
2021/01/26 10:42:19;;;;;;;6.62;1.67;;;;;;;;;;5165038;27;20253;-84
2021/01/26 10:44:54;;;;;;;5.18;2.00;;;;;;;;;;5167033;27;20065;-84
2021/01/26 10:47:23;;;;;;;7.90;2.40;;;;;;;;;;5168451;27;20425;-84
2021/01/26 10:49:53;;;;;;;7.82;1.87;;;;;;;;;;5163607;27;20038;-85
2021/01/26 10:52:42;;;;;;;3.53;2.12;;;;;;;;;;5169291;27;20323;-85
2021/01/26 10:55:18;;;;;;;4.80;2.30;;;;;;;;;;5166489;27;20493;-84
2021/01/26 10:57:46;;;;;;;6.00;1.90;;;;;;;;;;5167295;27;20033;-84
2021/01/26 11:00:17;;;;;;;9.27;2.40;;;;;;;;;;5166741;27;20032;-84
2021/01/26 11:02:45;;;;;;;6.20;2.53;;;;;;;;;;5166936;27;20030;-84
2021/01/26 11:05:14;;;;;;;8.18;2.12;;;;;;;;;;5166346;27;20031;-84
2021/01/26 11:07:42;;;;;;;5.78;1.55;;;;;;;;;;5167987;27;20047;-84
2021/01/26 11:10:11;;;;;;;7.12;2.05;;;;;;;;;;5167287;27;20243;-84
2021/01/26 11:12:40;;;;;;;7.28;2.12;;;;;;;;;;5165319;27;20314;-84
2021/01/26 11:15:11;;;;;;;7.57;2.30;;;;;;;;;;5167767;27;20532;-84
2021/01/26 11:17:39;;;;;;;5.10;1.85;;;;;;;;;;5165947;27;20394;-85
2021/01/26 11:20:08;;;;;;;5.68;1.65;;;;;;;;;;5165528;27;20062;-84
2021/01/26 11:22:38;;;;;;;6.05;1.80;;;;;;;;;;5168476;27;20034;-84
2021/01/26 11:25:07;;;;;;;8.30;1.95;;;;;;;;;;5148720;27;20031;-84
2021/01/26 11:27:36;;;;;;;5.62;2.03;;;;;;;;;;5167687;27;20246;-85
2021/01/26 11:30:06;;;;;;;5.70;2.17;;;;;;;;;;5167655;27;20031;-84
2021/01/26 11:32:35;;;;;;;11.65;2.40;;;;;;;;;;5164428;27;20028;-85
2021/01/26 11:35:06;;;;;;;5.80;1.75;;;;;;;;;;5163923;27;20057;-84
2021/01/26 11:37:34;;;;;;;6.65;1.98;;;;;;;;;;5164118;27;20063;-84
2021/01/26 11:40:03;;;;;;;8.60;2.17;;;;;;;;;;5146685;27;20062;-84
2021/01/26 11:42:33;;;;;;;8.30;2.15;;;;;;;;;;5148363;27;20032;-84
2021/01/26 11:45:01;;;;;;;11.48;2.00;;;;;;;;;;5166106;27;20066;-84
2021/01/26 11:47:30;;;;;;;8.85;1.87;;;;;;;;;;5150507;27;20394;-85
2021/01/26 11:50:05;;;;;;;8.02;2.10;;;;;;;;;;5168330;27;20042;-84
2021/01/26 11:52:33;;;;;;;5.00;1.87;;;;;;;;;;5166885;27;20041;-84
2021/01/26 11:55:02;;;;;;;5.18;1.90;;;;;;;;;;5167434;27;20059;-84
2021/01/26 11:57:31;;;;;;;6.90;1.92;;;;;;;;;;5164007;27;20037;-84
2021/01/26 12:00:00;;;;;;;7.22;1.73;;;;;;;;;;5163223;27;20034;-84
2021/01/26 12:02:28;;;;;;;6.10;2.05;;;;;;;;;;5163806;27;20020;-84
2021/01/26 12:04:58;;;;;;;6.85;1.92;;;;;;;;;;5164141;27;20057;-84
2021/01/26 12:07:26;;;;;;;6.70;2.05;;;;;;;;;;5164027;27;20093;-84
2021/01/26 12:09:55;;;;;;;4.95;1.65;;;;;;;;;;5168723;27;20023;-84
2021/01/26 12:12:24;;;;;;;6.55;1.75;;;;;;;;;;5168297;27;20071;-84
2021/01/26 12:14:52;;;;;;;8.45;1.90;;;;;;;;;;5168807;27;20055;-84
2021/01/26 12:17:20;;;;;;;9.13;2.10;;;;;;;;;;5167964;27;20169;-84
2021/01/26 12:19:49;;;;;;;5.97;1.92;;;;;;;;;;5165572;27;20479;-85
2021/01/26 12:22:17;;;;;;;6.53;2.80;;;;;;;;;;5167060;27;20524;-84
2021/01/26 12:24:46;;;;;;;6.75;1.98;;;;;;;;;;5169123;27;20032;-84
2021/01/26 12:27:14;;;;;;;7.45;1.92;;;;;;;;;;5169321;27;20324;-84
2021/01/26 12:29:42;;;;;;;8.15;2.20;;;;;;;;;;5165836;27;20366;-84
2021/01/26 12:32:11;;;;;;;9.13;2.17;;;;;;;;;;5168114;27;20090;-84
2021/01/26 12:34:40;;;;;;;12.88;2.50;;;;;;;;;;5169649;27;20089;-84
2021/01/26 12:37:08;;;;;;;8.00;1.80;;;;;;;;;;5166877;27;20106;-84
2021/01/26 12:39:36;;;;;;;11.18;2.37;;;;;;;;;;5168689;27;20049;-84
2021/01/26 12:42:05;;;;;;;7.20;1.80;;;;;;;;;;5168812;27;20358;-84
2021/01/26 12:44:33;;;;;;;7.90;2.05;;;;;;;;;;5170172;27;20041;-85
2021/01/26 12:47:01;;;;;;;10.18;2.05;;;;;;;;;;5166094;27;20031;-85
2021/01/26 12:49:30;;;;;;;4.90;1.80;;;;;;;;;;5167887;27;20043;-84
2021/01/26 12:51:59;;;;;;;12.70;1.87;;;;;;;;;;5167443;27;20046;-85
2021/01/26 12:54:27;;;;;;;9.50;1.95;;;;;;;;;;5168192;27;20067;-84
2021/01/26 12:56:56;;;;;;;9.95;2.00;;;;;;;;;;5168104;27;20035;-84
2021/01/26 12:59:24;;;;;;;7.87;1.90;;;;;;;;;;5167568;27;20057;-84
2021/01/26 13:01:52;;;;;;;9.50;1.77;;;;;;;;;;5168142;27;20038;-84
2021/01/26 13:04:21;;;;;;;6.20;1.55;;;;;;;;;;5167900;27;20023;-84
2021/01/26 13:06:49;;;;;;;9.43;2.10;;;;;;;;;;5166731;27;20055;-84
2021/01/26 13:09:17;;;;;;;12.18;2.20;;;;;;;;;;5162180;27;20063;-84
2021/01/26 13:11:46;;;;;;;8.90;1.98;;;;;;;;;;5162329;27;20466;-84
2021/01/26 13:14:14;;;;;;;8.43;2.15;;;;;;;;;;5147712;27;20028;-84
2021/01/26 13:16:44;;;;;;;10.90;1.98;;;;;;;;;;5164966;27;20062;-85
2021/01/26 13:19:13;;;;;;;9.80;1.80;;;;;;;;;;5167326;27;20041;-84
2021/01/26 13:21:42;;;;;;;8.93;1.80;;;;;;;;;;5146358;27;20028;-84
2021/01/26 13:24:11;;;;;;;11.20;2.10;;;;;;;;;;5166218;27;20291;-85
2021/01/26 13:26:40;;;;;;;9.15;1.75;;;;;;;;;;5168080;27;20027;-84
2021/01/26 13:29:08;;;;;;;10.65;1.92;;;;;;;;;;5167317;27;20045;-84
2021/01/26 13:31:36;;;;;;;7.28;1.62;;;;;;;;;;5164779;27;20063;-84
2021/01/26 13:34:06;;;;;;;11.02;1.95;;;;;;;;;;5167206;27;20078;-84
2021/01/26 13:36:34;;;;;;;10.60;1.73;;;;;;;;;;5168796;27;20410;-84
2021/01/26 13:39:03;;;;;;;5.95;1.52;;;;;;;;;;5166246;27;20082;-84
2021/01/26 13:41:32;;;;;;;10.18;2.20;;;;;;;;;;5162243;27;20071;-84
2021/01/26 13:44:00;;;;;;;10.57;1.60;;;;;;;;;;5168451;27;20020;-85
2021/01/26 13:46:28;;;;;;;8.85;1.65;;;;;;;;;;5139800;27;20097;-84
2021/01/26 13:48:58;;;;;;;8.77;1.52;;;;;;;;;;5165258;27;20066;-84
2021/01/26 13:51:26;;;;;;;8.60;2.10;;;;;;;;;;5168043;27;20048;-84
2021/01/26 13:53:55;;;;;;;8.95;2.10;;;;;;;;;;5166824;27;20034;-84
2021/01/26 13:56:23;;;;;;;12.98;1.98;;;;;;;;;;5167464;27;20027;-84
2021/01/26 13:58:52;;;;;;;10.65;1.85;;;;;;;;;;5168230;27;20031;-84
2021/01/26 14:01:20;;;;;;;8.68;2.05;;;;;;;;;;5166033;27;20035;-84
2021/01/26 14:03:49;;;;;;;11.35;1.87;;;;;;;;;;5168131;27;20071;-84
2021/01/26 14:06:18;;;;;;;9.93;1.80;;;;;;;;;;5165272;27;20062;-84
2021/01/26 14:08:46;;;;;;;6.45;1.87;;;;;;;;;;5168303;27;20090;-84
2021/01/26 14:11:15;;;;;;;8.32;2.10;;;;;;;;;;5167213;27;20082;-84
2021/01/26 14:13:43;;;;;;;11.88;1.98;;;;;;;;;;5164836;27;20028;-84
2021/01/26 14:16:12;;;;;;;6.25;2.00;;;;;;;;;;5164595;27;20033;-84
2021/01/26 14:18:40;;;;;;;9.00;1.83;;;;;;;;;;5166650;27;20062;-84
2021/01/26 14:21:09;;;;;;;6.47;1.70;;;;;;;;;;5148079;27;20046;-84
2021/01/26 14:23:37;;;;;;;6.95;1.75;;;;;;;;;;5167859;27;20171;-84
2021/01/26 14:26:05;;;;;;;11.10;2.30;;;;;;;;;;5167287;27;20089;-84
2021/01/26 14:28:37;;;;;;;9.13;2.12;;;;;;;;;;5167951;27;20066;-84
2021/01/26 14:31:06;;;;;;;12.60;1.40;;;;;;;;;;5168456;27;20212;-85
2021/01/26 14:33:35;;;;;;;8.40;1.92;;;;;;;;;;5163052;27;20078;-83
2021/01/26 14:36:03;;;;;;;8.07;1.50;;;;;;;;;;5167666;27;20034;-84
2021/01/26 14:38:32;;;;;;;9.45;1.92;;;;;;;;;;5165582;27;20019;-84
2021/01/26 14:41:01;;;;;;;13.45;1.87;;;;;;;;;;5147597;27;20386;-84
2021/01/26 14:43:30;;;;;;;8.55;1.77;;;;;;;;;;5146649;27;20399;-84
2021/01/26 14:45:59;;;;;;;14.18;1.70;;;;;;;;;;5164760;27;20059;-84
2021/01/26 14:48:27;;;;;;;11.27;2.10;;;;;;;;;;5163657;27;20094;-84
2021/01/26 14:50:56;;;;;;;9.38;2.35;;;;;;;;;;5164832;27;20489;-85
2021/01/26 14:53:25;;;;;;;10.80;2.42;;;;;;;;;;5166521;27;20419;-84
2021/01/26 14:55:54;;;;;;;12.18;2.30;;;;;;;;;;5166135;27;20035;-84
2021/01/26 14:58:22;;;;;;;15.27;2.15;;;;;;;;;;5167700;27;20030;-84
2021/01/26 15:00:51;;;;;;;16.73;5.50;;;;;;;;;;5164429;27;20098;-84
2021/01/26 15:03:19;;;;;;;13.23;4.40;;;;;;;;;;5166765;27;20075;-83
2021/01/26 15:05:47;;;;;;;11.20;3.65;;;;;;;;;;5165759;27;20499;-84
2021/01/26 15:08:16;;;;;;;12.30;5.12;;;;;;;;;;5164741;27;20050;-84
2021/01/26 15:10:44;;;;;;;9.70;5.07;;;;;;;;;;5166482;27;20071;-85
2021/01/26 15:13:13;;;;;;;11.80;3.03;;;;;;;;;;5164823;27;20027;-84
2021/01/26 15:15:41;;;;;;;9.20;2.12;;;;;;;;;;5161287;27;20039;-84
2021/01/26 15:18:10;;;;;;;9.52;1.70;;;;;;;;;;5160449;27;20070;-84
2021/01/26 15:20:38;;;;;;;11.15;1.98;;;;;;;;;;5167107;27;20050;-84
2021/01/26 15:23:07;;;;;;;11.00;2.22;;;;;;;;;;5164560;27;20077;-84
2021/01/26 15:25:36;;;;;;;15.10;2.20;;;;;;;;;;5163414;27;20058;-84
2021/01/26 15:28:05;;;;;;;12.05;2.42;;;;;;;;;;5164034;27;20054;-83
2021/01/26 15:30:33;;;;;;;10.13;2.08;;;;;;;;;;5166858;27;20031;-84
2021/01/26 15:33:02;;;;;;;7.10;1.70;;;;;;;;;;5164296;27;20067;-83
2021/01/26 15:35:30;;;;;;;8.90;1.80;;;;;;;;;;5163336;27;20065;-85
2021/01/26 15:37:59;;;;;;;11.00;2.15;;;;;;;;;;5164942;27;20266;-84
2021/01/26 15:40:28;;;;;;;11.88;2.53;;;;;;;;;;5152303;27;20344;-84
2021/01/26 15:42:56;;;;;;;7.25;1.83;;;;;;;;;;5162981;27;20363;-84
2021/01/26 15:45:25;;;;;;;12.37;2.17;;;;;;;;;;5164035;27;20027;-84
2021/01/26 15:47:54;;;;;;;15.10;2.97;;;;;;;;;;5162589;27;20441;-84
2021/01/26 15:50:25;;;;;;;13.02;3.40;;;;;;;;;;5164734;27;20044;-84
2021/01/26 15:52:54;;;;;;;12.48;3.60;;;;;;;;;;5162929;27;20350;-84
2021/01/26 15:55:22;;;;;;;16.23;9.10;;;;;;;;;;5164171;27;20496;-83
2021/01/26 15:57:51;;;;;;;15.48;11.65;;;;;;;;;;5166095;27;20040;-84
2021/01/26 16:00:21;;;;;;;12.88;2.22;;;;;;;;;;5166808;27;20045;-84
2021/01/26 16:02:49;;;;;;;9.98;2.70;;;;;;;;;;5165122;27;20374;-83
2021/01/26 16:05:18;;;;;;;9.60;3.03;;;;;;;;;;5164072;27;20058;-83
2021/01/26 16:07:47;;;;;;;11.05;3.17;;;;;;;;;;5166455;27;20067;-84
2021/01/26 16:10:16;;;;;;;10.23;2.78;;;;;;;;;;5164662;27;20036;-84
2021/01/26 16:12:45;;;;;;;10.95;2.97;;;;;;;;;;5166922;27;20027;-83
2021/01/26 16:15:13;;;;;;;10.05;3.40;;;;;;;;;;5162815;27;20030;-83
2021/01/26 16:17:42;;;;;;;15.15;3.17;;;;;;;;;;5167231;27;20035;-84
2021/01/26 16:20:12;;;;;;;8.88;2.53;;;;;;;;;;5165923;27;20046;-83
2021/01/26 16:22:41;;;;;;;14.45;3.70;;;;;;;;;;5167123;27;20023;-84
2021/01/26 16:25:12;;;;;;;12.77;2.17;;;;;;;;;;5163058;27;20461;-84
2021/01/26 16:27:41;;;;;;;15.15;2.87;;;;;;;;;;5166002;27;20438;-84
2021/01/26 16:30:10;;;;;;;15.32;3.55;;;;;;;;;;5164683;27;20058;-84
2021/01/26 16:32:40;;;;;;;12.50;3.65;;;;;;;;;;5167547;27;20032;-83
2021/01/26 16:35:10;;;;;;;9.63;2.35;;;;;;;;;;5165252;27;20042;-84
2021/01/26 16:37:40;;;;;;;11.38;1.95;;;;;;;;;;5167392;27;20044;-84
2021/01/26 16:40:14;;;;;;;18.33;6.87;;;;;;;;;;5163609;27;20027;-84
2021/01/26 16:42:43;;;;;;;13.93;9.77;;;;;;;;;;5164587;27;20478;-84
2021/01/26 16:45:13;;;;;;;17.08;10.52;;;;;;;;;;5164971;27;20034;-84
2021/01/26 16:47:41;;;;;;;17.48;13.52;;;;;;;;;;5160602;27;20027;-84
2021/01/26 16:50:21;;;;;;;14.65;8.77;;;;;;;;;;5162517;27;20339;-84
2021/01/26 16:52:49;;;;;;;9.95;5.87;;;;;;;;;;5158969;27;20059;-84
2021/01/26 16:55:18;;;;;;;13.50;11.40;;;;;;;;;;5137586;27;20078;-83
2021/01/26 16:57:47;;;;;;;16.17;2.97;;;;;;;;;;5159847;27;20145;-82
2021/01/26 17:00:18;;;;;;;10.82;6.20;;;;;;;;;;5166341;27;20037;-82
2021/01/26 17:03:05;;;;;;;15.63;10.23;;;;;;;;;;5163855;27;20350;-83
2021/01/26 17:05:37;;;;;;;18.45;7.20;;;;;;;;;;5164450;27;20067;-83
2021/01/26 17:08:09;;;;;;;11.43;7.60;;;;;;;;;;5164119;27;20499;-83
2021/01/26 17:10:38;;;;;;;11.68;2.20;;;;;;;;;;5166195;27;20147;-82
2021/01/26 17:13:07;;;;;;;15.13;2.40;;;;;;;;;;5167499;27;20042;-82
2021/01/26 17:15:37;;;;;;;11.10;2.22;;;;;;;;;;5167563;27;20039;-83
2021/01/26 17:18:06;;;;;;;10.82;1.70;;;;;;;;;;5170208;27;20097;-83
2021/01/26 17:20:37;;;;;;;17.40;2.45;;;;;;;;;;5168464;27;20019;-83
2021/01/26 17:23:08;;;;;;;14.82;3.10;;;;;;;;;;5167658;27;20035;-83
2021/01/26 17:25:36;;;;;;;14.20;2.30;;;;;;;;;;5169266;27;20042;-83
2021/01/26 17:28:07;;;;;;;17.98;4.87;;;;;;;;;;5167090;27;20130;-83
2021/01/26 17:30:36;;;;;;;8.43;2.00;;;;;;;;;;5166048;27;20047;-83
2021/01/26 17:33:06;;;;;;;12.02;2.12;;;;;;;;;;5168644;27;20028;-83
2021/01/26 17:35:35;;;;;;;12.50;2.00;;;;;;;;;;5166213;27;20049;-83
2021/01/26 17:38:04;;;;;;;13.73;2.53;;;;;;;;;;5168780;27;20034;-83
2021/01/26 17:40:32;;;;;;;9.18;2.33;;;;;;;;;;5167960;27;20077;-83
2021/01/26 17:43:01;;;;;;;14.75;2.65;;;;;;;;;;5167126;27;20421;-83
2021/01/26 17:45:29;;;;;;;11.07;2.30;;;;;;;;;;5168833;27;20076;-83
2021/01/26 17:47:58;;;;;;;13.38;9.93;;;;;;;;;;5131296;27;20062;-82
2021/01/26 17:50:27;;;;;;;16.67;14.00;;;;;;;;;;5167876;27;20026;-83
2021/01/26 17:52:56;;;;;;;18.00;15.20;;;;;;;;;;5168311;27;20046;-83
2021/01/26 17:55:25;;;;;;;15.27;2.70;;;;;;;;;;5168811;27;20074;-83
2021/01/26 17:57:53;;;;;;;12.05;2.80;;;;;;;;;;5168781;27;20041;-83
2021/01/26 18:00:24;;;;;;;14.15;2.47;;;;;;;;;;5169614;27;20480;-83
2021/01/26 18:02:54;;;;;;;12.20;2.55;;;;;;;;;;5169085;27;20027;-82
2021/01/26 18:05:23;;;;;;;14.15;2.60;;;;;;;;;;5169067;27;20039;-83
2021/01/26 18:07:56;;;;;;;11.98;2.87;;;;;;;;;;5145554;27;20024;-83
2021/01/26 18:10:26;;;;;;;13.40;2.50;;;;;;;;;;5166285;27;20026;-82
2021/01/26 18:12:55;;;;;;;15.98;4.18;;;;;;;;;;5164422;27;20027;-82
2021/01/26 18:15:25;;;;;;;14.45;4.50;;;;;;;;;;5144734;27;20027;-83
2021/01/26 18:17:54;;;;;;;24.05;13.85;;;;;;;;;;5166447;27;20041;-83
2021/01/26 18:20:23;;;;;;;18.77;3.28;;;;;;;;;;5166748;27;20027;-83
2021/01/26 18:22:51;;;;;;;15.63;7.07;;;;;;;;;;5166535;27;20024;-83
2021/01/26 18:25:21;;;;;;;19.85;5.70;;;;;;;;;;5169368;27;20024;-83
2021/01/26 18:27:50;;;;;;;17.77;4.20;;;;;;;;;;5167799;27;20030;-82
2021/01/26 18:30:21;;;;;;;23.17;12.75;;;;;;;;;;5150653;27;20093;-83
2021/01/26 18:32:51;;;;;;;24.95;16.12;;;;;;;;;;5168800;27;20041;-83
2021/01/26 18:35:21;;;;;;;21.52;10.70;;;;;;;;;;5169195;27;20057;-82
2021/01/26 18:37:50;;;;;;;15.43;11.35;;;;;;;;;;5166580;27;20027;-82
2021/01/26 18:40:19;;;;;;;27.55;19.17;;;;;;;;;;5168500;27;20154;-83
2021/01/26 18:42:48;;;;;;;20.42;12.75;;;;;;;;;;5164553;27;20355;-82
2021/01/26 18:45:18;;;;;;;25.48;19.10;;;;;;;;;;5165083;27;20034;-83